sensor_id;sensor_type;location;lat;lon;timestamp;temperature;humidity
8709;DHT22;4391;48.678;9.280;2023-04-25T00:01:55;8.00;1.00
8709;DHT22;4391;48.678;9.280;2023-04-25T00:04:22;8.00;1.00
8709;DHT22;4391;48.678;9.280;2023-04-25T00:06:49;8.00;1.00
8709;DHT22;4391;48.678;9.280;2023-04-25T00:09:17;8.00;1.00
8709;DHT22;4391;48.678;9.280;2023-04-25T00:11:44;7.90;1.00
8709;DHT22;4391;48.678;9.280;2023-04-25T00:14:10;7.90;1.00
8709;DHT22;4391;48.678;9.280;2023-04-25T00:16:37;7.90;1.00
8709;DHT22;4391;48.678;9.280;2023-04-25T00:19:04;7.80;1.00
8709;DHT22;4391;48.678;9.280;2023-04-25T00:21:31;7.80;1.00
8709;DHT22;4391;48.678;9.280;2023-04-25T00:23:59;7.80;1.00
8709;DHT22;4391;48.678;9.280;2023-04-25T00:26:27;7.80;1.00
8709;DHT22;4391;48.678;9.280;2023-04-25T00:28:54;7.90;1.00
8709;DHT22;4391;48.678;9.280;2023-04-25T00:31:21;7.80;1.00
8709;DHT22;4391;48.678;9.280;2023-04-25T00:33:48;7.80;1.00
8709;DHT22;4391;48.678;9.280;2023-04-25T00:36:14;7.90;1.00
8709;DHT22;4391;48.678;9.280;2023-04-25T00:38:42;7.80;1.00
8709;DHT22;4391;48.678;9.280;2023-04-25T00:41:09;7.90;1.00
8709;DHT22;4391;48.678;9.280;2023-04-25T00:43:37;7.80;1.00
8709;DHT22;4391;48.678;9.280;2023-04-25T00:46:06;7.90;1.00
8709;DHT22;4391;48.678;9.280;2023-04-25T00:48:32;7.90;1.00
8709;DHT22;4391;48.678;9.280;2023-04-25T00:50:59;7.80;1.00
8709;DHT22;4391;48.678;9.280;2023-04-25T00:53:27;7.90;1.00
8709;DHT22;4391;48.678;9.280;2023-04-25T00:55:54;7.90;1.00
8709;DHT22;4391;48.678;9.280;2023-04-25T00:58:22;7.90;1.00
8709;DHT22;4391;48.678;9.280;2023-04-25T01:00:51;7.90;1.00
8709;DHT22;4391;48.678;9.280;2023-04-25T01:03:18;7.90;1.00
8709;DHT22;4391;48.678;9.280;2023-04-25T01:05:46;8.00;1.00
8709;DHT22;4391;48.678;9.280;2023-04-25T01:08:14;7.90;1.00
8709;DHT22;4391;48.678;9.280;2023-04-25T01:10:41;7.90;1.00
8709;DHT22;4391;48.678;9.280;2023-04-25T01:13:07;7.90;1.00
8709;DHT22;4391;48.678;9.280;2023-04-25T01:15:34;7.90;1.00
8709;DHT22;4391;48.678;9.280;2023-04-25T01:18:03;7.80;1.00
8709;DHT22;4391;48.678;9.280;2023-04-25T01:20:32;7.80;1.00
8709;DHT22;4391;48.678;9.280;2023-04-25T01:23:01;7.80;1.00
8709;DHT22;4391;48.678;9.280;2023-04-25T01:25:29;7.70;1.00
8709;DHT22;4391;48.678;9.280;2023-04-25T01:27:56;7.80;1.00
8709;DHT22;4391;48.678;9.280;2023-04-25T01:30:24;7.80;1.00
8709;DHT22;4391;48.678;9.280;2023-04-25T01:32:51;7.70;1.00
8709;DHT22;4391;48.678;9.280;2023-04-25T01:35:19;7.70;1.00
8709;DHT22;4391;48.678;9.280;2023-04-25T01:37:45;7.70;1.00
8709;DHT22;4391;48.678;9.280;2023-04-25T01:40:14;7.70;1.00
8709;DHT22;4391;48.678;9.280;2023-04-25T01:42:42;7.70;1.00
8709;DHT22;4391;48.678;9.280;2023-04-25T01:45:11;7.70;1.00
8709;DHT22;4391;48.678;9.280;2023-04-25T01:47:38;7.70;1.00
8709;DHT22;4391;48.678;9.280;2023-04-25T01:50:08;7.80;1.00
8709;DHT22;4391;48.678;9.280;2023-04-25T01:52:35;7.80;1.00
8709;DHT22;4391;48.678;9.280;2023-04-25T01:55:02;7.80;1.00
8709;DHT22;4391;48.678;9.280;2023-04-25T01:57:30;7.80;1.00
8709;DHT22;4391;48.678;9.280;2023-04-25T01:59:59;7.70;1.00
8709;DHT22;4391;48.678;9.280;2023-04-25T02:02:26;7.80;1.00
8709;DHT22;4391;48.678;9.280;2023-04-25T02:04:53;7.80;1.00
8709;DHT22;4391;48.678;9.280;2023-04-25T02:07:21;7.80;1.00
8709;DHT22;4391;48.678;9.280;2023-04-25T02:09:48;7.60;10.70
8709;DHT22;4391;48.678;9.280;2023-04-25T02:12:15;7.60;6.70
8709;DHT22;4391;48.678;9.280;2023-04-25T02:14:43;7.50;12.40
8709;DHT22;4391;48.678;9.280;2023-04-25T02:17:10;7.40;10.80
8709;DHT22;4391;48.678;9.280;2023-04-25T02:19:39;7.40;10.90
8709;DHT22;4391;48.678;9.280;2023-04-25T02:22:05;7.40;10.20
8709;DHT22;4391;48.678;9.280;2023-04-25T02:24:32;7.40;5.80
8709;DHT22;4391;48.678;9.280;2023-04-25T02:27:00;7.40;7.40
8709;DHT22;4391;48.678;9.280;2023-04-25T02:29:27;7.60;1.00
8709;DHT22;4391;48.678;9.280;2023-04-25T02:31:55;7.50;1.00
8709;DHT22;4391;48.678;9.280;2023-04-25T02:34:22;7.50;1.00
8709;DHT22;4391;48.678;9.280;2023-04-25T02:36:49;7.50;1.00
8709;DHT22;4391;48.678;9.280;2023-04-25T02:39:16;7.50;1.00
8709;DHT22;4391;48.678;9.280;2023-04-25T02:41:43;7.50;1.00
8709;DHT22;4391;48.678;9.280;2023-04-25T02:44:10;7.50;1.00
8709;DHT22;4391;48.678;9.280;2023-04-25T02:46:36;7.50;1.00
8709;DHT22;4391;48.678;9.280;2023-04-25T02:49:05;7.60;1.00
8709;DHT22;4391;48.678;9.280;2023-04-25T02:51:32;7.50;1.00
8709;DHT22;4391;48.678;9.280;2023-04-25T02:53:58;7.60;1.00
8709;DHT22;4391;48.678;9.280;2023-04-25T02:56:25;7.60;1.00
8709;DHT22;4391;48.678;9.280;2023-04-25T02:58:52;7.60;1.00
8709;DHT22;4391;48.678;9.280;2023-04-25T03:01:19;7.60;1.00
8709;DHT22;4391;48.678;9.280;2023-04-25T03:03:46;7.60;1.00
8709;DHT22;4391;48.678;9.280;2023-04-25T03:06:14;7.50;1.00
8709;DHT22;4391;48.678;9.280;2023-04-25T03:08:41;7.50;1.00
8709;DHT22;4391;48.678;9.280;2023-04-25T03:11:08;7.60;1.00
8709;DHT22;4391;48.678;9.280;2023-04-25T03:13:35;7.50;1.00
8709;DHT22;4391;48.678;9.280;2023-04-25T03:16:01;7.50;1.00
8709;DHT22;4391;48.678;9.280;2023-04-25T03:18:28;7.40;1.00
8709;DHT22;4391;48.678;9.280;2023-04-25T03:20:55;7.30;1.00
8709;DHT22;4391;48.678;9.280;2023-04-25T03:23:23;7.30;1.00
8709;DHT22;4391;48.678;9.280;2023-04-25T03:25:50;7.30;1.00
8709;DHT22;4391;48.678;9.280;2023-04-25T03:28:17;7.30;1.00
8709;DHT22;4391;48.678;9.280;2023-04-25T03:30:44;7.30;1.00
8709;DHT22;4391;48.678;9.280;2023-04-25T03:33:11;7.30;1.00
8709;DHT22;4391;48.678;9.280;2023-04-25T03:35:37;7.30;1.00
8709;DHT22;4391;48.678;9.280;2023-04-25T03:38:04;7.30;1.00
8709;DHT22;4391;48.678;9.280;2023-04-25T03:40:32;7.30;1.00
8709;DHT22;4391;48.678;9.280;2023-04-25T03:42:59;7.30;1.00
8709;DHT22;4391;48.678;9.280;2023-04-25T03:45:26;7.30;1.00
8709;DHT22;4391;48.678;9.280;2023-04-25T03:47:53;7.40;1.00
8709;DHT22;4391;48.678;9.280;2023-04-25T03:50:20;7.40;1.00
8709;DHT22;4391;48.678;9.280;2023-04-25T03:52:46;7.40;1.00
8709;DHT22;4391;48.678;9.280;2023-04-25T03:55:13;7.40;1.00
8709;DHT22;4391;48.678;9.280;2023-04-25T03:57:41;7.40;1.00
8709;DHT22;4391;48.678;9.280;2023-04-25T04:00:09;7.40;1.00
8709;DHT22;4391;48.678;9.280;2023-04-25T04:02:36;7.40;1.00
8709;DHT22;4391;48.678;9.280;2023-04-25T04:05:04;7.30;1.00
8709;DHT22;4391;48.678;9.280;2023-04-25T04:07:32;7.30;1.00
8709;DHT22;4391;48.678;9.280;2023-04-25T04:10:02;7.30;1.00
8709;DHT22;4391;48.678;9.280;2023-04-25T04:12:30;7.20;1.00
8709;DHT22;4391;48.678;9.280;2023-04-25T04:14:59;7.30;1.00
8709;DHT22;4391;48.678;9.280;2023-04-25T04:17:25;7.20;1.00
8709;DHT22;4391;48.678;9.280;2023-04-25T04:19:52;7.20;1.00
8709;DHT22;4391;48.678;9.280;2023-04-25T04:22:19;7.20;1.00
8709;DHT22;4391;48.678;9.280;2023-04-25T04:24:46;7.20;1.90
8709;DHT22;4391;48.678;9.280;2023-04-25T04:27:12;7.30;4.10
8709;DHT22;4391;48.678;9.280;2023-04-25T04:29:39;7.30;9.00
8709;DHT22;4391;48.678;9.280;2023-04-25T04:32:08;7.30;12.30
8709;DHT22;4391;48.678;9.280;2023-04-25T04:34:35;7.30;10.70
8709;DHT22;4391;48.678;9.280;2023-04-25T04:37:02;7.30;13.00
8709;DHT22;4391;48.678;9.280;2023-04-25T04:39:28;7.30;1.00
8709;DHT22;4391;48.678;9.280;2023-04-25T04:41:55;7.40;1.00
8709;DHT22;4391;48.678;9.280;2023-04-25T04:44:22;7.40;1.00
8709;DHT22;4391;48.678;9.280;2023-04-25T04:46:49;7.40;1.00
8709;DHT22;4391;48.678;9.280;2023-04-25T04:49:17;7.40;1.00
8709;DHT22;4391;48.678;9.280;2023-04-25T04:51:44;7.30;1.00
8709;DHT22;4391;48.678;9.280;2023-04-25T04:54:11;7.40;1.00
8709;DHT22;4391;48.678;9.280;2023-04-25T04:56:37;7.30;1.00
8709;DHT22;4391;48.678;9.280;2023-04-25T04:59:04;7.30;1.00
8709;DHT22;4391;48.678;9.280;2023-04-25T05:01:32;7.40;1.00
8709;DHT22;4391;48.678;9.280;2023-04-25T05:04:00;7.50;1.00
8709;DHT22;4391;48.678;9.280;2023-04-25T05:06:30;7.50;1.00
8709;DHT22;4391;48.678;9.280;2023-04-25T05:08:57;7.60;1.00
8709;DHT22;4391;48.678;9.280;2023-04-25T05:11:24;7.60;1.00
8709;DHT22;4391;48.678;9.280;2023-04-25T05:13:52;7.60;1.00
8709;DHT22;4391;48.678;9.280;2023-04-25T05:16:19;7.60;1.00
8709;DHT22;4391;48.678;9.280;2023-04-25T05:18:46;7.70;1.00
8709;DHT22;4391;48.678;9.280;2023-04-25T05:21:13;7.80;1.00
8709;DHT22;4391;48.678;9.280;2023-04-25T05:23:41;7.90;1.00
8709;DHT22;4391;48.678;9.280;2023-04-25T05:26:08;8.00;1.00
8709;DHT22;4391;48.678;9.280;2023-04-25T05:28:39;8.00;1.00
8709;DHT22;4391;48.678;9.280;2023-04-25T05:31:06;8.20;1.00
8709;DHT22;4391;48.678;9.280;2023-04-25T05:33:33;8.10;99.90
8709;DHT22;4391;48.678;9.280;2023-04-25T05:36:00;8.10;1.00
8709;DHT22;4391;48.678;9.280;2023-04-25T05:38:27;8.10;1.00
8709;DHT22;4391;48.678;9.280;2023-04-25T05:40:55;8.00;1.00
8709;DHT22;4391;48.678;9.280;2023-04-25T05:43:22;8.00;1.00
8709;DHT22;4391;48.678;9.280;2023-04-25T05:45:49;8.00;1.00
8709;DHT22;4391;48.678;9.280;2023-04-25T05:48:15;8.00;1.00
8709;DHT22;4391;48.678;9.280;2023-04-25T05:50:42;8.00;1.00
8709;DHT22;4391;48.678;9.280;2023-04-25T05:53:09;8.00;1.00
8709;DHT22;4391;48.678;9.280;2023-04-25T05:55:36;7.90;1.00
8709;DHT22;4391;48.678;9.280;2023-04-25T05:58:06;7.80;1.00
8709;DHT22;4391;48.678;9.280;2023-04-25T06:00:33;7.80;1.00
8709;DHT22;4391;48.678;9.280;2023-04-25T06:03:00;7.80;1.00
8709;DHT22;4391;48.678;9.280;2023-04-25T06:05:28;7.70;1.00
8709;DHT22;4391;48.678;9.280;2023-04-25T06:07:55;7.70;5.00
8709;DHT22;4391;48.678;9.280;2023-04-25T06:10:22;7.70;23.30
8709;DHT22;4391;48.678;9.280;2023-04-25T06:12:49;7.70;32.30
8709;DHT22;4391;48.678;9.280;2023-04-25T06:15:17;7.80;34.00
8709;DHT22;4391;48.678;9.280;2023-04-25T06:17:44;7.80;33.10
8709;DHT22;4391;48.678;9.280;2023-04-25T06:20:11;8.00;17.20
8709;DHT22;4391;48.678;9.280;2023-04-25T06:22:38;8.30;10.20
8709;DHT22;4391;48.678;9.280;2023-04-25T06:25:06;8.70;1.00
8709;DHT22;4391;48.678;9.280;2023-04-25T06:27:33;9.10;1.00
8709;DHT22;4391;48.678;9.280;2023-04-25T06:29:59;9.30;99.90
8709;DHT22;4391;48.678;9.280;2023-04-25T06:32:28;9.50;99.90
8709;DHT22;4391;48.678;9.280;2023-04-25T06:34:55;9.60;92.20
8709;DHT22;4391;48.678;9.280;2023-04-25T06:37:22;9.80;66.30
8709;DHT22;4391;48.678;9.280;2023-04-25T06:39:49;9.80;30.80
8709;DHT22;4391;48.678;9.280;2023-04-25T06:42:15;9.80;1.00
8709;DHT22;4391;48.678;9.280;2023-04-25T06:44:42;9.90;1.00
8709;DHT22;4391;48.678;9.280;2023-04-25T06:47:09;9.90;99.90
8709;DHT22;4391;48.678;9.280;2023-04-25T06:49:37;9.90;99.90
8709;DHT22;4391;48.678;9.280;2023-04-25T06:52:04;9.80;99.90
8709;DHT22;4391;48.678;9.280;2023-04-25T06:54:31;9.80;1.00
8709;DHT22;4391;48.678;9.280;2023-04-25T06:56:58;9.70;99.90
8709;DHT22;4391;48.678;9.280;2023-04-25T06:59:26;9.60;99.90
8709;DHT22;4391;48.678;9.280;2023-04-25T07:01:53;9.50;1.00
8709;DHT22;4391;48.678;9.280;2023-04-25T07:04:19;9.40;99.90
8709;DHT22;4391;48.678;9.280;2023-04-25T07:06:48;9.30;99.90
8709;DHT22;4391;48.678;9.280;2023-04-25T07:09:15;9.10;99.90
8709;DHT22;4391;48.678;9.280;2023-04-25T07:11:42;9.10;99.90
8709;DHT22;4391;48.678;9.280;2023-04-25T07:14:08;9.00;1.00
8709;DHT22;4391;48.678;9.280;2023-04-25T07:16:35;8.90;99.90
8709;DHT22;4391;48.678;9.280;2023-04-25T07:19:02;8.90;99.90
8709;DHT22;4391;48.678;9.280;2023-04-25T07:21:29;8.80;99.90
8709;DHT22;4391;48.678;9.280;2023-04-25T07:23:58;8.70;99.90
8709;DHT22;4391;48.678;9.280;2023-04-25T07:26:25;8.60;99.90
8709;DHT22;4391;48.678;9.280;2023-04-25T07:28:52;8.40;1.00
8709;DHT22;4391;48.678;9.280;2023-04-25T07:31:20;8.40;1.00
8709;DHT22;4391;48.678;9.280;2023-04-25T07:33:47;8.20;1.00
8709;DHT22;4391;48.678;9.280;2023-04-25T07:36:14;8.20;1.00
8709;DHT22;4391;48.678;9.280;2023-04-25T07:38:41;8.10;1.00
8709;DHT22;4391;48.678;9.280;2023-04-25T07:41:09;8.10;1.00
8709;DHT22;4391;48.678;9.280;2023-04-25T07:43:36;8.10;1.00
8709;DHT22;4391;48.678;9.280;2023-04-25T07:46:04;8.10;1.00
8709;DHT22;4391;48.678;9.280;2023-04-25T07:48:31;8.00;1.00
8709;DHT22;4391;48.678;9.280;2023-04-25T07:50:58;8.00;1.00
8709;DHT22;4391;48.678;9.280;2023-04-25T07:53:25;8.00;1.00
8709;DHT22;4391;48.678;9.280;2023-04-25T07:55:52;8.00;1.00
8709;DHT22;4391;48.678;9.280;2023-04-25T07:58:23;8.00;1.00
8709;DHT22;4391;48.678;9.280;2023-04-25T08:00:50;8.00;5.40
8709;DHT22;4391;48.678;9.280;2023-04-25T08:03:17;8.00;1.00
8709;DHT22;4391;48.678;9.280;2023-04-25T08:05:44;8.00;1.00
8709;DHT22;4391;48.678;9.280;2023-04-25T08:08:11;8.00;1.00
8709;DHT22;4391;48.678;9.280;2023-04-25T08:10:37;8.00;20.90
8709;DHT22;4391;48.678;9.280;2023-04-25T08:13:04;8.00;38.50
8709;DHT22;4391;48.678;9.280;2023-04-25T08:18:01;7.90;44.10
8709;DHT22;4391;48.678;9.280;2023-04-25T08:20:28;7.90;81.20
8709;DHT22;4391;48.678;9.280;2023-04-25T08:22:54;8.00;71.00
8709;DHT22;4391;48.678;9.280;2023-04-25T08:25:21;8.00;36.90
8709;DHT22;4391;48.678;9.280;2023-04-25T08:27:48;8.00;46.30
8709;DHT22;4391;48.678;9.280;2023-04-25T08:30:15;8.00;27.10
8709;DHT22;4391;48.678;9.280;2023-04-25T08:32:42;8.00;32.60
8709;DHT22;4391;48.678;9.280;2023-04-25T08:35:10;8.00;9.50
8709;DHT22;4391;48.678;9.280;2023-04-25T08:37:37;7.90;43.60
8709;DHT22;4391;48.678;9.280;2023-04-25T08:40:05;8.00;71.90
8709;DHT22;4391;48.678;9.280;2023-04-25T08:42:33;8.10;69.90
8709;DHT22;4391;48.678;9.280;2023-04-25T08:45:01;8.10;37.80
8709;DHT22;4391;48.678;9.280;2023-04-25T08:47:30;8.00;72.80
8709;DHT22;4391;48.678;9.280;2023-04-25T08:49:59;8.00;56.00
8709;DHT22;4391;48.678;9.280;2023-04-25T08:52:35;7.90;56.90
8709;DHT22;4391;48.678;9.280;2023-04-25T08:55:02;7.70;73.40
8709;DHT22;4391;48.678;9.280;2023-04-25T08:57:31;7.60;84.50
8709;DHT22;4391;48.678;9.280;2023-04-25T08:59:58;7.50;91.00
8709;DHT22;4391;48.678;9.280;2023-04-25T09:02:27;7.50;99.90
8709;DHT22;4391;48.678;9.280;2023-04-25T09:04:54;7.50;99.90
8709;DHT22;4391;48.678;9.280;2023-04-25T09:07:21;7.50;99.90
8709;DHT22;4391;48.678;9.280;2023-04-25T09:09:49;7.50;99.90
8709;DHT22;4391;48.678;9.280;2023-04-25T09:12:18;7.70;99.90
8709;DHT22;4391;48.678;9.280;2023-04-25T09:15:01;7.50;83.40
8709;DHT22;4391;48.678;9.280;2023-04-25T09:17:28;7.40;55.00
8709;DHT22;4391;48.678;9.280;2023-04-25T09:19:55;7.20;34.30
8709;DHT22;4391;48.678;9.280;2023-04-25T09:22:31;7.10;56.20
8709;DHT22;4391;48.678;9.280;2023-04-25T09:25:02;7.20;93.70
8709;DHT22;4391;48.678;9.280;2023-04-25T09:27:30;7.10;99.90
8709;DHT22;4391;48.678;9.280;2023-04-25T09:29:58;7.20;99.90
8709;DHT22;4391;48.678;9.280;2023-04-25T09:32:26;7.40;99.90
8709;DHT22;4391;48.678;9.280;2023-04-25T09:34:53;7.40;99.90
8709;DHT22;4391;48.678;9.280;2023-04-25T09:37:21;7.40;99.90
8709;DHT22;4391;48.678;9.280;2023-04-25T09:39:50;7.30;90.00
8709;DHT22;4391;48.678;9.280;2023-04-25T09:42:18;7.30;90.20
8709;DHT22;4391;48.678;9.280;2023-04-25T09:44:51;7.10;92.70
8709;DHT22;4391;48.678;9.280;2023-04-25T09:47:19;7.10;99.90
8709;DHT22;4391;48.678;9.280;2023-04-25T09:49:48;7.10;99.90
8709;DHT22;4391;48.678;9.280;2023-04-25T09:52:16;7.20;99.90
8709;DHT22;4391;48.678;9.280;2023-04-25T09:54:44;7.20;99.90
8709;DHT22;4391;48.678;9.280;2023-04-25T09:57:12;7.10;93.60
8709;DHT22;4391;48.678;9.280;2023-04-25T09:59:43;7.10;99.90
8709;DHT22;4391;48.678;9.280;2023-04-25T10:02:11;7.10;99.90
8709;DHT22;4391;48.678;9.280;2023-04-25T10:04:39;7.00;99.90
8709;DHT22;4391;48.678;9.280;2023-04-25T10:07:08;7.00;99.90
8709;DHT22;4391;48.678;9.280;2023-04-25T10:09:38;6.90;99.90
8709;DHT22;4391;48.678;9.280;2023-04-25T10:12:06;7.00;99.90
8709;DHT22;4391;48.678;9.280;2023-04-25T10:14:34;6.90;99.90
8709;DHT22;4391;48.678;9.280;2023-04-25T10:17:02;7.00;99.90
8709;DHT22;4391;48.678;9.280;2023-04-25T10:19:29;7.00;99.90
8709;DHT22;4391;48.678;9.280;2023-04-25T10:22:06;6.90;99.90
8709;DHT22;4391;48.678;9.280;2023-04-25T10:24:35;6.90;99.90
8709;DHT22;4391;48.678;9.280;2023-04-25T10:27:02;6.90;99.90
8709;DHT22;4391;48.678;9.280;2023-04-25T10:29:29;6.80;99.90
8709;DHT22;4391;48.678;9.280;2023-04-25T10:31:57;6.80;95.90
8709;DHT22;4391;48.678;9.280;2023-04-25T10:34:38;6.70;99.90
8709;DHT22;4391;48.678;9.280;2023-04-25T10:37:08;6.70;94.10
8709;DHT22;4391;48.678;9.280;2023-04-25T10:39:35;6.70;94.40
8709;DHT22;4391;48.678;9.280;2023-04-25T10:42:04;6.70;90.10
8709;DHT22;4391;48.678;9.280;2023-04-25T10:44:31;6.40;89.60
8709;DHT22;4391;48.678;9.280;2023-04-25T10:46:59;6.50;99.90
8709;DHT22;4391;48.678;9.280;2023-04-25T10:49:32;6.40;93.50
8709;DHT22;4391;48.678;9.280;2023-04-25T10:52:13;6.40;95.00
8709;DHT22;4391;48.678;9.280;2023-04-25T10:54:41;6.40;99.90
8709;DHT22;4391;48.678;9.280;2023-04-25T10:57:26;6.30;78.00
8709;DHT22;4391;48.678;9.280;2023-04-25T10:59:54;6.10;98.90
8709;DHT22;4391;48.678;9.280;2023-04-25T11:02:21;6.20;99.90
8709;DHT22;4391;48.678;9.280;2023-04-25T11:04:54;6.30;99.90
8709;DHT22;4391;48.678;9.280;2023-04-25T11:07:26;6.40;99.90
8709;DHT22;4391;48.678;9.280;2023-04-25T11:09:56;6.40;99.60
8709;DHT22;4391;48.678;9.280;2023-04-25T11:12:24;6.40;99.90
8709;DHT22;4391;48.678;9.280;2023-04-25T11:14:58;6.30;99.90
8709;DHT22;4391;48.678;9.280;2023-04-25T11:17:26;6.30;99.90
8709;DHT22;4391;48.678;9.280;2023-04-25T11:19:55;6.60;99.90
8709;DHT22;4391;48.678;9.280;2023-04-25T11:22:23;6.70;99.90
8709;DHT22;4391;48.678;9.280;2023-04-25T11:24:50;6.70;99.90
8709;DHT22;4391;48.678;9.280;2023-04-25T11:27:20;6.70;99.90
8709;DHT22;4391;48.678;9.280;2023-04-25T11:29:47;6.70;99.90
8709;DHT22;4391;48.678;9.280;2023-04-25T11:32:15;6.80;99.90
8709;DHT22;4391;48.678;9.280;2023-04-25T11:34:43;6.70;99.90
8709;DHT22;4391;48.678;9.280;2023-04-25T11:37:12;6.80;99.90
8709;DHT22;4391;48.678;9.280;2023-04-25T11:39:43;6.70;99.90
8709;DHT22;4391;48.678;9.280;2023-04-25T11:42:15;6.70;99.90
8709;DHT22;4391;48.678;9.280;2023-04-25T11:44:42;6.80;99.90
8709;DHT22;4391;48.678;9.280;2023-04-25T11:47:09;6.90;99.90
8709;DHT22;4391;48.678;9.280;2023-04-25T11:49:36;7.00;99.90
8709;DHT22;4391;48.678;9.280;2023-04-25T11:52:05;7.10;77.40
8709;DHT22;4391;48.678;9.280;2023-04-25T11:54:36;7.30;89.10
8709;DHT22;4391;48.678;9.280;2023-04-25T11:57:04;7.40;41.70
8709;DHT22;4391;48.678;9.280;2023-04-25T11:59:31;7.60;75.50
8709;DHT22;4391;48.678;9.280;2023-04-25T12:01:57;7.80;27.30
8709;DHT22;4391;48.678;9.280;2023-04-25T12:04:30;7.80;1.00
8709;DHT22;4391;48.678;9.280;2023-04-25T12:06:58;7.90;8.50
8709;DHT22;4391;48.678;9.280;2023-04-25T12:09:30;8.10;21.60
8709;DHT22;4391;48.678;9.280;2023-04-25T12:12:00;8.20;1.00
8709;DHT22;4391;48.678;9.280;2023-04-25T12:14:30;8.30;1.00
8709;DHT22;4391;48.678;9.280;2023-04-25T12:16:59;8.40;1.00
8709;DHT22;4391;48.678;9.280;2023-04-25T12:19:31;8.50;1.00
8709;DHT22;4391;48.678;9.280;2023-04-25T12:22:00;8.60;1.00
8709;DHT22;4391;48.678;9.280;2023-04-25T12:24:28;8.50;1.00
8709;DHT22;4391;48.678;9.280;2023-04-25T12:27:01;8.60;1.00
8709;DHT22;4391;48.678;9.280;2023-04-25T12:29:29;8.50;1.00
8709;DHT22;4391;48.678;9.280;2023-04-25T12:31:57;8.40;1.00
8709;DHT22;4391;48.678;9.280;2023-04-25T12:34:24;8.30;1.00
8709;DHT22;4391;48.678;9.280;2023-04-25T12:36:52;8.20;1.00
8709;DHT22;4391;48.678;9.280;2023-04-25T12:39:20;8.30;6.80
8709;DHT22;4391;48.678;9.280;2023-04-25T12:41:49;8.20;1.00
8709;DHT22;4391;48.678;9.280;2023-04-25T12:44:17;8.20;1.00
8709;DHT22;4391;48.678;9.280;2023-04-25T12:46:44;8.30;17.50
8709;DHT22;4391;48.678;9.280;2023-04-25T12:49:11;8.40;15.80
8709;DHT22;4391;48.678;9.280;2023-04-25T12:51:38;8.50;22.50
8709;DHT22;4391;48.678;9.280;2023-04-25T12:54:07;8.50;1.00
8709;DHT22;4391;48.678;9.280;2023-04-25T12:56:35;8.30;1.00
8709;DHT22;4391;48.678;9.280;2023-04-25T12:59:02;8.30;1.00
8709;DHT22;4391;48.678;9.280;2023-04-25T13:01:31;8.50;19.60
8709;DHT22;4391;48.678;9.280;2023-04-25T13:03:58;8.60;2.70
8709;DHT22;4391;48.678;9.280;2023-04-25T13:06:26;8.70;1.00
8709;DHT22;4391;48.678;9.280;2023-04-25T13:08:53;8.80;1.00
8709;DHT22;4391;48.678;9.280;2023-04-25T13:11:20;8.70;1.00
8709;DHT22;4391;48.678;9.280;2023-04-25T13:13:47;8.90;1.00
8709;DHT22;4391;48.678;9.280;2023-04-25T13:16:14;9.10;1.00
8709;DHT22;4391;48.678;9.280;2023-04-25T13:18:42;9.20;99.90
8709;DHT22;4391;48.678;9.280;2023-04-25T13:21:10;9.60;1.00
8709;DHT22;4391;48.678;9.280;2023-04-25T13:23:37;10.00;1.00
8709;DHT22;4391;48.678;9.280;2023-04-25T13:26:04;10.20;1.00
8709;DHT22;4391;48.678;9.280;2023-04-25T13:28:31;10.40;15.30
8709;DHT22;4391;48.678;9.280;2023-04-25T13:30:58;10.70;1.00
8709;DHT22;4391;48.678;9.280;2023-04-25T13:33:28;11.60;99.90
8709;DHT22;4391;48.678;9.280;2023-04-25T13:35:57;12.70;1.00
8709;DHT22;4391;48.678;9.280;2023-04-25T13:38:26;13.40;1.00
8709;DHT22;4391;48.678;9.280;2023-04-25T13:40:53;13.50;1.00
8709;DHT22;4391;48.678;9.280;2023-04-25T13:43:21;13.40;1.00
8709;DHT22;4391;48.678;9.280;2023-04-25T13:45:49;13.00;1.00
8709;DHT22;4391;48.678;9.280;2023-04-25T13:48:17;12.40;1.00
8709;DHT22;4391;48.678;9.280;2023-04-25T13:50:44;12.40;1.00
8709;DHT22;4391;48.678;9.280;2023-04-25T13:53:13;13.10;1.00
8709;DHT22;4391;48.678;9.280;2023-04-25T13:55:43;13.70;99.90
8709;DHT22;4391;48.678;9.280;2023-04-25T13:58:10;13.70;1.00
8709;DHT22;4391;48.678;9.280;2023-04-25T14:00:38;14.40;99.90
8709;DHT22;4391;48.678;9.280;2023-04-25T14:03:06;14.90;99.90
8709;DHT22;4391;48.678;9.280;2023-04-25T14:05:34;15.10;99.90
8709;DHT22;4391;48.678;9.280;2023-04-25T14:08:07;14.80;99.90
8709;DHT22;4391;48.678;9.280;2023-04-25T14:10:36;14.50;99.90
8709;DHT22;4391;48.678;9.280;2023-04-25T14:13:04;14.00;99.90
8709;DHT22;4391;48.678;9.280;2023-04-25T14:15:31;13.60;99.90
8709;DHT22;4391;48.678;9.280;2023-04-25T14:17:58;13.10;99.90
8709;DHT22;4391;48.678;9.280;2023-04-25T14:20:25;12.60;99.90
8709;DHT22;4391;48.678;9.280;2023-04-25T14:22:52;12.10;99.90
8709;DHT22;4391;48.678;9.280;2023-04-25T14:25:21;11.70;1.00
8709;DHT22;4391;48.678;9.280;2023-04-25T14:27:49;11.20;1.00
8709;DHT22;4391;48.678;9.280;2023-04-25T14:30:17;11.00;99.90
8709;DHT22;4391;48.678;9.280;2023-04-25T14:32:44;10.70;1.00
8709;DHT22;4391;48.678;9.280;2023-04-25T14:35:11;10.80;1.00
8709;DHT22;4391;48.678;9.280;2023-04-25T14:37:38;11.50;2.60
8709;DHT22;4391;48.678;9.280;2023-04-25T14:40:06;12.60;99.90
8709;DHT22;4391;48.678;9.280;2023-04-25T14:42:34;13.40;1.00
8709;DHT22;4391;48.678;9.280;2023-04-25T14:45:02;14.70;1.00
8709;DHT22;4391;48.678;9.280;2023-04-25T14:47:29;14.80;99.90
8709;DHT22;4391;48.678;9.280;2023-04-25T14:49:57;14.50;99.90
8709;DHT22;4391;48.678;9.280;2023-04-25T14:52:24;13.50;99.90
8709;DHT22;4391;48.678;9.280;2023-04-25T14:54:51;12.50;1.00
8709;DHT22;4391;48.678;9.280;2023-04-25T14:57:18;12.40;1.00
8709;DHT22;4391;48.678;9.280;2023-04-25T14:59:44;12.40;1.00
8709;DHT22;4391;48.678;9.280;2023-04-25T15:02:13;12.40;1.00
8709;DHT22;4391;48.678;9.280;2023-04-25T15:04:39;12.20;1.00
8709;DHT22;4391;48.678;9.280;2023-04-25T15:07:07;12.10;1.00
8709;DHT22;4391;48.678;9.280;2023-04-25T15:09:34;12.20;1.00
8709;DHT22;4391;48.678;9.280;2023-04-25T15:12:00;12.30;1.00
8709;DHT22;4391;48.678;9.280;2023-04-25T15:14:28;13.30;1.00
8709;DHT22;4391;48.678;9.280;2023-04-25T15:16:55;14.90;99.90
8709;DHT22;4391;48.678;9.280;2023-04-25T15:19:23;16.00;99.90
8709;DHT22;4391;48.678;9.280;2023-04-25T15:21:50;17.30;99.90
8709;DHT22;4391;48.678;9.280;2023-04-25T15:24:17;16.60;99.90
8709;DHT22;4391;48.678;9.280;2023-04-25T15:26:44;15.20;99.90
8709;DHT22;4391;48.678;9.280;2023-04-25T15:29:11;14.80;99.90
8709;DHT22;4391;48.678;9.280;2023-04-25T15:31:38;14.30;99.90
8709;DHT22;4391;48.678;9.280;2023-04-25T15:34:05;13.60;99.90
8709;DHT22;4391;48.678;9.280;2023-04-25T15:36:33;12.90;99.90
8709;DHT22;4391;48.678;9.280;2023-04-25T15:39:00;12.80;99.90
8709;DHT22;4391;48.678;9.280;2023-04-25T15:41:28;12.70;99.90
8709;DHT22;4391;48.678;9.280;2023-04-25T15:43:55;12.80;99.90
8709;DHT22;4391;48.678;9.280;2023-04-25T15:46:22;12.80;99.90
8709;DHT22;4391;48.678;9.280;2023-04-25T15:48:49;12.90;99.90
8709;DHT22;4391;48.678;9.280;2023-04-25T15:51:15;12.90;99.90
8709;DHT22;4391;48.678;9.280;2023-04-25T15:53:44;12.80;99.90
8709;DHT22;4391;48.678;9.280;2023-04-25T15:56:11;12.50;99.90
8709;DHT22;4391;48.678;9.280;2023-04-25T15:58:38;12.20;99.90
8709;DHT22;4391;48.678;9.280;2023-04-25T16:01:05;11.90;99.90
8709;DHT22;4391;48.678;9.280;2023-04-25T16:03:32;11.70;99.90
8709;DHT22;4391;48.678;9.280;2023-04-25T16:05:59;11.50;99.90
8709;DHT22;4391;48.678;9.280;2023-04-25T16:08:26;11.20;1.00
8709;DHT22;4391;48.678;9.280;2023-04-25T16:10:55;11.20;1.00
8709;DHT22;4391;48.678;9.280;2023-04-25T16:13:22;11.10;1.00
8709;DHT22;4391;48.678;9.280;2023-04-25T16:15:51;11.20;1.00
8709;DHT22;4391;48.678;9.280;2023-04-25T16:18:17;11.30;1.00
8709;DHT22;4391;48.678;9.280;2023-04-25T16:20:44;11.40;1.00
8709;DHT22;4391;48.678;9.280;2023-04-25T16:23:11;11.30;1.00
8709;DHT22;4391;48.678;9.280;2023-04-25T16:25:38;11.20;1.00
8709;DHT22;4391;48.678;9.280;2023-04-25T16:28:06;11.10;99.90
8709;DHT22;4391;48.678;9.280;2023-04-25T16:30:33;11.00;99.90